createdAt,value
2018-01-24T00:00:54.420Z,992.13
2018-01-24T00:01:54.334Z,992.12
2018-01-24T00:03:47.615Z,992.12
2018-01-24T00:04:47.506Z,992.38
2018-01-24T00:06:40.719Z,992.41
2018-01-24T00:07:40.637Z,992.19
2018-01-24T00:09:35.498Z,992.20
2018-01-24T00:10:34.720Z,992.27
2018-01-24T00:12:28.753Z,992.16
2018-01-24T00:13:28.659Z,992.34
2018-01-24T00:15:21.952Z,992.32
2018-01-24T00:16:21.843Z,992.27
2018-01-24T00:18:16.105Z,992.34
2018-01-24T00:19:16.028Z,992.38
2018-01-24T00:21:09.361Z,992.55
2018-01-24T00:22:09.246Z,992.26
2018-01-24T00:24:03.632Z,992.12
2018-01-24T00:25:03.366Z,992.23
2018-01-24T00:26:57.424Z,992.21
2018-01-24T00:27:57.310Z,992.26
2018-01-24T00:29:50.598Z,992.33
2018-01-24T00:30:50.503Z,992.37
2018-01-24T00:32:45.248Z,992.20
2018-01-24T00:33:44.693Z,992.45
2018-01-24T00:35:38.618Z,992.34
2018-01-24T00:36:38.514Z,992.30
2018-01-24T00:38:33.155Z,992.32
2018-01-24T00:39:32.871Z,992.37
2018-01-24T00:41:26.887Z,992.32
2018-01-24T00:42:26.815Z,992.57
2018-01-24T00:44:20.071Z,992.23
2018-01-24T00:45:19.968Z,992.38
2018-01-24T00:47:13.954Z,992.41
2018-01-24T00:48:13.880Z,992.44
2018-01-24T00:50:08.130Z,992.21
2018-01-24T00:51:08.030Z,992.22
2018-01-24T00:53:01.300Z,992.42
2018-01-24T00:54:01.215Z,992.30
2018-01-24T00:55:54.553Z,992.47
2018-01-24T00:56:54.399Z,992.48
2018-01-24T00:58:48.440Z,992.51
2018-01-24T00:59:48.355Z,992.43
2018-01-24T01:01:41.731Z,992.35
2018-01-24T01:02:41.433Z,992.40
2018-01-24T01:04:35.321Z,992.71
2018-01-24T01:05:35.231Z,992.66
2018-01-24T01:07:28.538Z,992.68
2018-01-24T01:08:28.414Z,992.51
2018-01-24T01:10:22.709Z,992.76
2018-01-24T01:11:22.663Z,992.65
2018-01-24T01:13:16.910Z,992.59
2018-01-24T01:14:16.793Z,992.64
2018-01-24T01:16:11.554Z,992.71
2018-01-24T01:17:10.728Z,992.70
2018-01-24T01:19:03.524Z,992.54
2018-01-24T01:20:03.445Z,992.49
2018-01-24T01:21:57.662Z,992.72
2018-01-24T01:22:57.582Z,992.62
2018-01-24T01:24:50.876Z,992.71
2018-01-24T01:25:50.764Z,992.59
2018-01-24T01:27:44.035Z,992.67
2018-01-24T01:28:43.942Z,992.72
2018-01-24T01:30:37.490Z,992.56
2018-01-24T01:31:37.130Z,992.46
2018-01-24T01:33:30.375Z,992.52
2018-01-24T01:34:30.288Z,992.54
2018-01-24T01:36:24.579Z,992.52
2018-01-24T01:37:24.483Z,992.55
2018-01-24T01:39:17.782Z,992.79
2018-01-24T01:40:17.650Z,992.76
2018-01-24T01:42:11.931Z,992.70
2018-01-24T01:43:11.824Z,992.66
2018-01-24T01:45:05.083Z,992.78
2018-01-24T01:46:04.991Z,992.75
2018-01-24T01:47:58.307Z,992.71
2018-01-24T01:48:58.179Z,992.63
2018-01-24T01:50:52.175Z,992.63
2018-01-24T01:51:52.468Z,992.65
2018-01-24T01:53:46.322Z,992.56
2018-01-24T01:54:46.217Z,992.55
2018-01-24T01:56:39.475Z,992.77
2018-01-24T01:57:39.397Z,992.45
2018-01-24T01:59:33.412Z,992.43
2018-01-24T02:00:33.367Z,992.48
2018-01-24T02:02:27.534Z,992.32
2018-01-24T02:03:27.452Z,992.48
2018-01-24T02:05:21.658Z,992.68
2018-01-24T02:06:21.681Z,992.31
2018-01-24T02:08:14.293Z,992.51
2018-01-24T02:09:14.114Z,992.53
2018-01-24T02:11:08.369Z,992.35
2018-01-24T02:12:08.268Z,992.40
2018-01-24T02:14:02.554Z,992.35
2018-01-24T02:15:02.458Z,992.38
2018-01-24T02:16:55.831Z,992.40
2018-01-24T02:17:55.582Z,992.22
2018-01-24T02:19:48.882Z,992.32
2018-01-24T02:20:48.793Z,992.43
2018-01-24T02:22:42.133Z,992.31
2018-01-24T02:23:41.997Z,992.24
2018-01-24T02:25:35.212Z,992.17
2018-01-24T02:26:35.126Z,992.29
2018-01-24T02:28:29.432Z,992.29
2018-01-24T02:29:29.329Z,992.30
2018-01-24T02:31:22.611Z,992.25
2018-01-24T02:32:22.546Z,992.21
2018-01-24T02:34:17.036Z,992.38
2018-01-24T02:35:16.536Z,992.47
2018-01-24T02:37:10.762Z,992.45
2018-01-24T02:38:10.673Z,992.43
2018-01-24T02:40:03.958Z,992.29
2018-01-24T02:41:03.838Z,992.16
2018-01-24T02:42:57.101Z,992.22
2018-01-24T02:43:57.017Z,992.24
2018-01-24T02:45:51.110Z,992.21
2018-01-24T02:46:50.912Z,992.22
2018-01-24T02:48:44.261Z,992.29
2018-01-24T02:49:43.799Z,992.56
2018-01-24T02:51:38.016Z,992.35
2018-01-24T02:52:37.893Z,992.30
2018-01-24T02:54:31.173Z,992.36
2018-01-24T02:55:31.094Z,992.35
2018-01-24T02:57:25.287Z,992.32
2018-01-24T02:58:25.324Z,992.26
2018-01-24T03:00:19.414Z,992.07
2018-01-24T03:01:19.316Z,992.11
2018-01-24T03:03:14.405Z,991.98
2018-01-24T03:04:14.582Z,992.06
2018-01-24T03:06:08.485Z,992.20
2018-01-24T03:07:08.401Z,992.12
2018-01-24T03:09:02.950Z,992.02
2018-01-24T03:10:02.786Z,992.04
2018-01-24T03:11:56.653Z,992.23
2018-01-24T03:12:56.566Z,992.16
2018-01-24T03:14:50.845Z,992.00
2018-01-24T03:15:50.736Z,992.14
2018-01-24T03:17:45.014Z,992.13
2018-01-24T03:18:45.005Z,992.23
2018-01-24T03:20:38.903Z,992.30
2018-01-24T03:21:38.793Z,992.01
2018-01-24T03:23:32.062Z,992.11
2018-01-24T03:24:31.969Z,992.16
2018-01-24T03:26:25.273Z,992.28
2018-01-24T03:27:25.163Z,992.15
2018-01-24T03:29:18.431Z,992.18
2018-01-24T03:30:18.345Z,992.15
2018-01-24T03:32:11.946Z,992.19
2018-01-24T03:33:11.558Z,992.17
2018-01-24T03:35:04.816Z,992.28
2018-01-24T03:36:04.744Z,992.19
2018-01-24T03:37:58.002Z,992.22
2018-01-24T03:38:57.899Z,992.14
2018-01-24T03:40:51.192Z,992.29
2018-01-24T03:41:51.100Z,992.25
2018-01-24T03:43:45.372Z,992.21
2018-01-24T03:44:45.246Z,992.27
2018-01-24T03:46:39.675Z,992.21
2018-01-24T03:47:39.424Z,992.19
2018-01-24T03:49:32.721Z,992.25
2018-01-24T03:50:32.604Z,992.14
2018-01-24T03:52:25.856Z,992.27
2018-01-24T03:53:25.782Z,992.15
2018-01-24T03:55:19.059Z,992.08
2018-01-24T03:56:18.966Z,992.06
2018-01-24T03:58:13.394Z,992.01
2018-01-24T03:59:12.892Z,991.96
2018-01-24T04:01:06.287Z,992.00
2018-01-24T04:02:05.637Z,992.02
2018-01-24T04:03:59.859Z,991.95
2018-01-24T04:04:59.793Z,992.02
2018-01-24T04:06:53.300Z,992.07
2018-01-24T04:07:52.932Z,992.02
2018-01-24T04:09:47.045Z,991.98
2018-01-24T04:10:46.948Z,991.99
2018-01-24T04:12:41.184Z,992.01
2018-01-24T04:13:41.096Z,991.98
2018-01-24T04:15:35.305Z,992.00
2018-01-24T04:16:35.214Z,992.10
2018-01-24T04:18:28.085Z,991.97
2018-01-24T04:19:27.965Z,992.03
2018-01-24T04:21:22.205Z,992.12
2018-01-24T04:22:22.116Z,991.99
2018-01-24T04:24:16.349Z,992.11
2018-01-24T04:25:16.224Z,992.11
2018-01-24T04:27:10.454Z,992.12
2018-01-24T04:28:10.368Z,992.20
2018-01-24T04:30:04.381Z,992.17
2018-01-24T04:31:04.290Z,992.17
2018-01-24T04:32:57.214Z,992.21
2018-01-24T04:33:57.347Z,992.29
2018-01-24T04:35:51.405Z,992.24
2018-01-24T04:36:51.297Z,992.21
2018-01-24T04:38:45.696Z,992.34
2018-01-24T04:39:45.192Z,992.44
2018-01-24T04:41:38.798Z,992.28
2018-01-24T04:42:37.932Z,992.29
2018-01-24T04:44:32.241Z,992.32
2018-01-24T04:45:32.162Z,992.31
2018-01-24T04:47:26.386Z,992.24
2018-01-24T04:48:26.293Z,992.21
2018-01-24T04:50:19.563Z,992.19
2018-01-24T04:51:19.497Z,992.25
2018-01-24T04:53:14.272Z,992.27
2018-01-24T04:54:13.683Z,992.20
2018-01-24T04:56:06.342Z,992.12
2018-01-24T04:57:06.588Z,992.12
2018-01-24T04:59:00.722Z,992.21
2018-01-24T05:00:00.327Z,992.14
2018-01-24T05:01:53.588Z,992.25
2018-01-24T05:02:53.541Z,992.24
2018-01-24T05:04:46.810Z,992.16
2018-01-24T05:05:46.712Z,992.23
2018-01-24T05:07:39.971Z,992.24
2018-01-24T05:08:39.898Z,992.26
2018-01-24T05:10:34.174Z,992.30
2018-01-24T05:11:34.432Z,992.20
2018-01-24T05:13:27.288Z,992.28
2018-01-24T05:14:26.809Z,992.36
2018-01-24T05:16:20.261Z,992.30
2018-01-24T05:17:20.123Z,992.24
2018-01-24T05:19:12.455Z,992.24
2018-01-24T05:20:12.601Z,992.28
2018-01-24T05:22:06.522Z,992.24
2018-01-24T05:23:06.426Z,992.37
2018-01-24T05:24:59.799Z,992.39
2018-01-24T05:25:59.718Z,992.39
2018-01-24T05:27:53.280Z,992.37
2018-01-24T05:28:52.882Z,992.37
2018-01-24T05:30:46.134Z,992.34
2018-01-24T05:31:46.064Z,992.32
2018-01-24T05:33:40.408Z,992.26
2018-01-24T05:34:40.350Z,992.31
2018-01-24T05:36:34.277Z,992.24
2018-01-24T05:37:34.171Z,992.36
2018-01-24T05:39:27.467Z,992.35
2018-01-24T05:40:27.367Z,992.24
2018-01-24T05:42:20.623Z,992.33
2018-01-24T05:43:20.534Z,992.32
2018-01-24T05:45:13.793Z,992.34
2018-01-24T05:46:13.697Z,992.32
2018-01-24T05:48:06.951Z,992.36
2018-01-24T05:49:06.870Z,992.32
2018-01-24T05:51:01.261Z,992.23
2018-01-24T05:52:01.155Z,992.26
2018-01-24T05:53:54.428Z,992.32
2018-01-24T05:54:54.341Z,992.29
2018-01-24T05:56:47.599Z,992.26
2018-01-24T05:57:47.481Z,992.43
2018-01-24T05:59:40.737Z,992.41
2018-01-24T06:00:40.659Z,992.32
2018-01-24T06:02:35.091Z,992.42
2018-01-24T06:03:34.998Z,992.49
2018-01-24T06:05:28.844Z,992.52
2018-01-24T06:06:28.744Z,992.43
2018-01-24T06:08:22.073Z,992.42
2018-01-24T06:09:21.948Z,992.44
2018-01-24T06:11:15.275Z,992.54
2018-01-24T06:12:15.176Z,992.50
2018-01-24T06:14:09.569Z,992.57
2018-01-24T06:15:09.164Z,992.47
2018-01-24T06:17:03.358Z,992.46
2018-01-24T06:18:03.276Z,992.53
2018-01-24T06:19:57.577Z,992.49
2018-01-24T06:20:57.448Z,992.61
2018-01-24T06:22:50.719Z,992.45
2018-01-24T06:23:50.634Z,992.46
2018-01-24T06:25:43.929Z,992.41
2018-01-24T06:26:43.839Z,992.66
2018-01-24T06:28:38.085Z,992.54
2018-01-24T06:29:38.000Z,992.38
2018-01-24T06:31:31.295Z,992.42
2018-01-24T06:32:31.201Z,992.44
2018-01-24T06:34:24.462Z,992.51
2018-01-24T06:35:24.375Z,992.44
2018-01-24T06:37:18.614Z,992.49
2018-01-24T06:38:18.529Z,992.40
2018-01-24T06:40:13.656Z,992.45
2018-01-24T06:41:12.423Z,992.42
2018-01-24T06:43:06.660Z,992.54
2018-01-24T06:44:06.550Z,992.50
2018-01-24T06:46:00.700Z,992.46
2018-01-24T06:47:00.582Z,992.53
2018-01-24T06:48:54.822Z,992.55
2018-01-24T06:49:54.739Z,992.56
2018-01-24T06:51:48.866Z,992.50
2018-01-24T06:52:48.630Z,992.54
2018-01-24T06:54:42.917Z,992.44
2018-01-24T06:55:42.805Z,992.47
2018-01-24T06:57:36.051Z,992.56
2018-01-24T06:58:35.966Z,992.44
2018-01-24T07:00:29.303Z,992.46
2018-01-24T07:01:29.187Z,992.46
2018-01-24T07:03:22.424Z,992.42
2018-01-24T07:04:22.343Z,992.45
2018-01-24T07:06:15.707Z,992.41
2018-01-24T07:07:15.494Z,992.34
2018-01-24T07:09:08.763Z,992.35
2018-01-24T07:10:08.666Z,992.25
2018-01-24T07:12:01.968Z,992.23
2018-01-24T07:13:01.836Z,992.23
2018-01-24T07:14:55.872Z,992.30
2018-01-24T07:15:55.763Z,992.25
2018-01-24T07:17:49.538Z,992.29
2018-01-24T07:18:48.599Z,992.21
2018-01-24T07:20:42.831Z,992.34
2018-01-24T07:21:42.746Z,992.31
2018-01-24T07:23:36.024Z,992.33
2018-01-24T07:24:35.914Z,992.26
2018-01-24T07:26:29.164Z,992.26
2018-01-24T07:27:29.079Z,992.28
2018-01-24T07:29:23.521Z,992.41
2018-01-24T07:30:22.993Z,992.35
2018-01-24T07:32:17.748Z,992.17
2018-01-24T07:33:17.444Z,992.23
2018-01-24T07:35:11.419Z,992.20
2018-01-24T07:36:11.321Z,992.11
2018-01-24T07:38:05.592Z,992.17
2018-01-24T07:39:05.507Z,992.16
2018-01-24T07:41:00.261Z,992.09
2018-01-24T07:41:59.896Z,992.13
2018-01-24T07:43:53.761Z,992.11
2018-01-24T07:44:53.688Z,992.18
2018-01-24T07:46:48.307Z,992.26
2018-01-24T07:47:47.698Z,992.28
2018-01-24T07:49:40.804Z,992.22
2018-01-24T07:50:40.594Z,992.30
2018-01-24T07:52:34.641Z,992.30
2018-01-24T07:53:34.459Z,992.38
2018-01-24T07:55:27.752Z,992.29
2018-01-24T07:56:27.678Z,992.19
2018-01-24T07:58:22.119Z,992.20
2018-01-24T07:59:21.651Z,992.23
2018-01-24T08:01:16.000Z,992.20
2018-01-24T08:02:15.800Z,992.20
2018-01-24T08:04:10.107Z,992.15
2018-01-24T08:05:10.004Z,992.19
2018-01-24T08:07:03.226Z,992.17
2018-01-24T08:08:03.148Z,992.11
2018-01-24T08:09:58.031Z,992.14
2018-01-24T08:10:57.817Z,992.13
2018-01-24T08:12:51.891Z,992.08
2018-01-24T08:13:51.807Z,992.12
2018-01-24T08:15:46.333Z,992.14
2018-01-24T08:16:46.079Z,992.16
2018-01-24T08:19:23.318Z,992.02
2018-01-24T08:20:22.881Z,991.95
2018-01-24T08:23:07.545Z,992.00
2018-01-24T08:24:06.776Z,992.04
2018-01-24T08:26:00.975Z,992.00
2018-01-24T08:27:00.901Z,992.00
2018-01-24T08:28:56.835Z,991.98
2018-01-24T08:29:56.383Z,991.98
2018-01-24T08:31:51.179Z,992.02
2018-01-24T08:32:50.632Z,992.00
2018-01-24T08:35:23.374Z,991.84
2018-01-24T08:36:23.511Z,991.92
2018-01-24T08:38:17.389Z,991.94
2018-01-24T08:39:17.303Z,991.84
2018-01-24T08:41:11.587Z,991.97
2018-01-24T08:42:11.483Z,991.99
2018-01-24T08:44:04.791Z,991.90
2018-01-24T08:45:04.707Z,991.89
2018-01-24T08:46:57.952Z,992.01
2018-01-24T08:47:57.859Z,991.66
2018-01-24T08:49:51.116Z,991.79
2018-01-24T08:50:51.029Z,991.86
2018-01-24T08:52:44.325Z,991.90
2018-01-24T08:53:44.241Z,991.78
2018-01-24T08:55:37.505Z,991.87
2018-01-24T08:56:37.411Z,991.82
2018-01-24T08:58:30.711Z,991.78
2018-01-24T08:59:30.596Z,991.80
2018-01-24T09:01:24.864Z,991.88
2018-01-24T09:02:24.784Z,991.70
2018-01-24T09:04:18.053Z,991.71
2018-01-24T09:05:17.955Z,991.78
2018-01-24T09:07:11.175Z,991.79
2018-01-24T09:08:11.083Z,991.76
2018-01-24T09:10:05.364Z,991.83
2018-01-24T09:11:05.254Z,991.82
2018-01-24T09:12:58.514Z,991.97
2018-01-24T09:13:58.419Z,991.92
2018-01-24T09:15:51.693Z,991.94
2018-01-24T09:16:51.592Z,991.85
2018-01-24T09:18:44.846Z,991.81
2018-01-24T09:19:44.767Z,991.89
2018-01-24T09:21:39.419Z,991.80
2018-01-24T09:22:39.299Z,991.90
2018-01-24T09:24:33.529Z,992.14
2018-01-24T09:25:33.432Z,992.05
2018-01-24T09:27:27.666Z,992.00
2018-01-24T09:28:27.565Z,991.97
2018-01-24T09:30:21.837Z,992.00
2018-01-24T09:31:21.739Z,991.94
2018-01-24T09:33:15.962Z,991.95
2018-01-24T09:34:16.226Z,991.88
2018-01-24T09:36:10.155Z,991.64
2018-01-24T09:37:10.073Z,991.90
2018-01-24T09:39:03.395Z,991.68
2018-01-24T09:40:03.293Z,991.78
2018-01-24T09:41:57.333Z,991.95
2018-01-24T09:42:58.110Z,991.92
2018-01-24T09:44:51.531Z,991.82
2018-01-24T09:45:51.389Z,991.98
2018-01-24T09:47:44.632Z,991.82
2018-01-24T09:48:44.543Z,991.87
2018-01-24T09:50:39.094Z,991.71
2018-01-24T09:51:38.996Z,991.95
2018-01-24T09:53:31.930Z,991.87
2018-01-24T09:54:32.237Z,991.80
2018-01-24T09:56:26.127Z,991.92
2018-01-24T09:57:26.013Z,991.98
2018-01-24T09:59:19.260Z,992.02
2018-01-24T10:00:19.176Z,992.01
2018-01-24T10:02:12.441Z,991.92
2018-01-24T10:03:12.345Z,992.00
2018-01-24T10:05:07.865Z,991.90
2018-01-24T10:06:07.637Z,991.92
2018-01-24T10:08:00.283Z,991.89
2018-01-24T10:09:00.466Z,991.85
2018-01-24T10:10:54.330Z,991.93
2018-01-24T10:11:54.223Z,991.93
2018-01-24T10:13:47.549Z,992.02
2018-01-24T10:14:47.414Z,991.93
2018-01-24T10:16:40.642Z,992.02
2018-01-24T10:17:40.544Z,992.02
2018-01-24T10:19:34.876Z,992.02
2018-01-24T10:20:34.773Z,991.94
2018-01-24T10:22:28.062Z,991.87
2018-01-24T10:23:27.953Z,991.82
2018-01-24T10:25:22.186Z,991.81
2018-01-24T10:26:22.135Z,991.82
2018-01-24T10:28:16.149Z,991.69
2018-01-24T10:29:16.044Z,991.65
2018-01-24T10:31:10.062Z,991.62
2018-01-24T10:32:10.003Z,991.72
2018-01-24T10:34:04.182Z,991.70
2018-01-24T10:35:04.101Z,991.73
2018-01-24T10:36:57.354Z,991.78
2018-01-24T10:37:57.246Z,991.56
2018-01-24T10:39:50.561Z,991.69
2018-01-24T10:40:50.465Z,991.77
2018-01-24T10:42:43.731Z,991.53
2018-01-24T10:43:43.634Z,991.36
2018-01-24T10:45:37.987Z,991.47
2018-01-24T10:46:38.045Z,991.46
2018-01-24T10:48:31.950Z,991.43
2018-01-24T10:49:31.852Z,991.44
2018-01-24T10:51:25.087Z,991.30
2018-01-24T10:52:25.012Z,991.34
2018-01-24T10:54:18.296Z,991.33
2018-01-24T10:55:18.210Z,991.34
2018-01-24T10:57:11.536Z,991.24
2018-01-24T10:58:11.330Z,991.27
2018-01-24T11:00:04.628Z,991.17
2018-01-24T11:01:04.526Z,991.01
2018-01-24T11:02:58.982Z,991.18
2018-01-24T11:03:58.498Z,991.24
2018-01-24T11:05:51.746Z,990.96
2018-01-24T11:06:51.742Z,990.98
2018-01-24T11:08:45.596Z,990.93
2018-01-24T11:09:45.573Z,990.92
2018-01-24T11:11:38.799Z,990.84
2018-01-24T11:12:38.698Z,990.83
2018-01-24T11:14:31.953Z,990.83
2018-01-24T11:15:31.882Z,990.86
2018-01-24T11:17:26.327Z,990.76
2018-01-24T11:18:25.834Z,990.71
2018-01-24T11:20:18.787Z,990.67
2018-01-24T11:21:18.691Z,990.78
2018-01-24T11:23:11.725Z,990.82
2018-01-24T11:24:11.532Z,990.78
2018-01-24T11:26:04.581Z,990.68
2018-01-24T11:27:04.416Z,990.59
2018-01-24T11:28:58.707Z,990.77
2018-01-24T11:29:58.571Z,990.74
2018-01-24T11:31:51.828Z,990.91
2018-01-24T11:32:51.737Z,990.74
2018-01-24T11:34:46.063Z,990.81
2018-01-24T11:35:45.948Z,990.76
2018-01-24T11:37:41.290Z,990.58
2018-01-24T11:38:40.406Z,990.66
2018-01-24T11:40:34.274Z,990.64
2018-01-24T11:41:34.179Z,990.67
2018-01-24T11:43:28.436Z,990.67
2018-01-24T11:44:28.354Z,990.73
2018-01-24T11:46:22.619Z,990.54
2018-01-24T11:47:23.576Z,990.56
2018-01-24T11:49:16.691Z,990.47
2018-01-24T11:50:16.599Z,990.47
2018-01-24T11:52:09.889Z,990.45
2018-01-24T11:53:09.761Z,990.44
2018-01-24T11:55:03.104Z,990.42
2018-01-24T11:56:03.017Z,990.33
2018-01-24T11:57:56.309Z,990.42
2018-01-24T11:58:56.222Z,990.30
2018-01-24T12:00:49.483Z,990.34
2018-01-24T12:01:49.392Z,990.27
2018-01-24T12:03:43.379Z,990.30
2018-01-24T12:04:43.255Z,990.13
2018-01-24T12:06:38.103Z,990.01
2018-01-24T12:07:37.566Z,989.95
2018-01-24T12:09:30.866Z,990.00
2018-01-24T12:10:30.724Z,989.95
2018-01-24T12:12:25.281Z,990.02
2018-01-24T12:13:25.186Z,990.00
2018-01-24T12:15:19.427Z,990.05
2018-01-24T12:16:19.336Z,990.08
2018-01-24T12:18:12.606Z,989.99
2018-01-24T12:19:12.528Z,989.90
2018-01-24T12:21:05.803Z,989.85
2018-01-24T12:22:05.690Z,989.86
2018-01-24T12:23:58.943Z,989.74
2018-01-24T12:24:58.876Z,989.79
2018-01-24T12:26:52.111Z,989.93
2018-01-24T12:27:52.015Z,989.85
2018-01-24T12:29:45.259Z,989.80
2018-01-24T12:30:45.165Z,989.84
2018-01-24T12:32:39.569Z,989.77
2018-01-24T12:33:39.044Z,989.82
2018-01-24T12:35:31.865Z,989.75
2018-01-24T12:36:31.779Z,989.71
2018-01-24T12:38:26.181Z,989.65
2018-01-24T12:39:25.924Z,989.52
2018-01-24T12:41:19.832Z,989.52
2018-01-24T12:42:19.736Z,989.47
2018-01-24T12:44:14.023Z,989.45
2018-01-24T12:45:13.909Z,989.62
2018-01-24T12:47:07.137Z,989.31
2018-01-24T12:48:07.048Z,989.47
2018-01-24T12:50:00.327Z,989.23
2018-01-24T12:51:00.223Z,989.42
2018-01-24T12:52:53.519Z,989.31
2018-01-24T12:53:53.420Z,989.33
2018-01-24T12:55:46.707Z,989.36
2018-01-24T12:56:46.606Z,989.24
2018-01-24T12:58:40.623Z,989.08
2018-01-24T12:59:40.907Z,989.14
2018-01-24T13:01:34.308Z,989.09
2018-01-24T13:02:33.846Z,988.97
2018-01-24T13:04:26.555Z,988.96
2018-01-24T13:05:26.437Z,988.91
2018-01-24T13:07:20.444Z,988.95
2018-01-24T13:08:20.298Z,988.88
2018-01-24T13:10:14.646Z,988.91
2018-01-24T13:11:14.483Z,988.85
2018-01-24T13:13:07.954Z,988.77
2018-01-24T13:14:07.846Z,988.84
2018-01-24T13:16:01.680Z,988.84
2018-01-24T13:17:01.597Z,988.78
2018-01-24T13:18:56.403Z,988.81
2018-01-24T13:19:55.631Z,988.85
2018-01-24T13:21:48.960Z,988.89
2018-01-24T13:22:48.715Z,988.89
2018-01-24T13:24:42.621Z,988.74
2018-01-24T13:25:42.529Z,988.97
2018-01-24T13:27:36.789Z,988.89
2018-01-24T13:28:36.436Z,988.82
2018-01-24T13:30:29.630Z,988.91
2018-01-24T13:31:29.166Z,988.88
2018-01-24T13:33:23.406Z,988.89
2018-01-24T13:34:23.336Z,988.92
2018-01-24T13:36:17.450Z,988.77
2018-01-24T13:37:17.511Z,988.78
2018-01-24T13:39:11.617Z,988.72
2018-01-24T13:40:11.524Z,988.80
2018-01-24T13:42:05.828Z,988.69
2018-01-24T13:43:05.736Z,988.73
2018-01-24T13:44:59.993Z,988.70
2018-01-24T13:45:59.903Z,988.57
2018-01-24T13:47:54.105Z,988.53
2018-01-24T13:48:54.155Z,988.46
2018-01-24T13:50:48.235Z,988.50
2018-01-24T13:51:48.162Z,988.53
2018-01-24T13:53:42.446Z,988.60
2018-01-24T13:54:42.344Z,988.51
2018-01-24T13:56:35.603Z,988.57
2018-01-24T13:57:35.530Z,988.71
2018-01-24T13:59:30.073Z,988.74
2018-01-24T14:00:29.875Z,988.49
2018-01-24T14:02:23.810Z,988.48
2018-01-24T14:03:23.727Z,988.41
2018-01-24T14:05:17.063Z,988.43
2018-01-24T14:06:16.956Z,988.31
2018-01-24T14:08:10.223Z,988.33
2018-01-24T14:09:10.143Z,988.34
2018-01-24T14:11:04.417Z,988.31
2018-01-24T14:12:04.321Z,988.34
2018-01-24T14:13:57.599Z,988.40
2018-01-24T14:14:57.499Z,988.31
2018-01-24T14:16:52.193Z,988.30
2018-01-24T14:17:51.789Z,988.25
2018-01-24T14:19:45.570Z,988.27
2018-01-24T14:20:44.512Z,988.22
2018-01-24T14:22:38.396Z,988.11
2018-01-24T14:23:38.290Z,988.09
2018-01-24T14:25:31.548Z,988.18
2018-01-24T14:26:31.461Z,988.10
2018-01-24T14:28:26.231Z,988.20
2018-01-24T14:29:25.421Z,988.20
2018-01-24T14:31:19.216Z,988.16
2018-01-24T14:32:18.435Z,988.27
2018-01-24T14:34:12.361Z,988.22
2018-01-24T14:35:12.265Z,988.13
2018-01-24T14:37:05.474Z,988.16
2018-01-24T14:38:05.390Z,988.14
2018-01-24T14:40:00.071Z,988.15
2018-01-24T14:40:59.748Z,988.10
2018-01-24T14:42:53.787Z,988.20
2018-01-24T14:43:53.699Z,988.15
2018-01-24T14:45:47.027Z,988.00
2018-01-24T14:46:46.923Z,988.05
2018-01-24T14:48:41.141Z,988.01
2018-01-24T14:49:41.053Z,988.03
2018-01-24T14:51:34.325Z,987.97
2018-01-24T14:52:34.232Z,988.03
2018-01-24T14:54:28.508Z,987.84
2018-01-24T14:55:28.412Z,987.89
2018-01-24T14:57:21.665Z,987.77
2018-01-24T14:58:21.558Z,987.77
2018-01-24T15:00:15.825Z,987.90
2018-01-24T15:01:15.738Z,987.77
2018-01-24T15:03:09.047Z,987.75
2018-01-24T15:04:08.942Z,987.83
2018-01-24T15:06:03.076Z,987.78
2018-01-24T15:07:03.384Z,987.75
2018-01-24T15:08:56.489Z,987.81
2018-01-24T15:09:55.744Z,987.71
2018-01-24T15:11:50.020Z,987.75
2018-01-24T15:12:49.879Z,987.82
2018-01-24T15:14:43.187Z,987.81
2018-01-24T15:15:43.082Z,987.63
2018-01-24T15:17:39.003Z,987.74
2018-01-24T15:18:38.497Z,987.67
2018-01-24T15:20:32.810Z,987.69
2018-01-24T15:21:32.711Z,987.67
2018-01-24T15:23:27.852Z,987.69
2018-01-24T15:24:27.404Z,987.63
2018-01-24T15:26:21.657Z,987.68
2018-01-24T15:27:21.558Z,987.76
2018-01-24T15:29:14.863Z,987.64
2018-01-24T15:30:14.733Z,987.59
2018-01-24T15:32:09.722Z,987.54
2018-01-24T15:33:08.963Z,987.45
2018-01-24T15:35:03.088Z,987.50
2018-01-24T15:36:02.989Z,987.47
2018-01-24T15:37:56.306Z,987.46
2018-01-24T15:38:56.182Z,987.55
2018-01-24T15:40:50.541Z,987.46
2018-01-24T15:41:50.232Z,987.51
2018-01-24T15:43:44.485Z,987.36
2018-01-24T15:44:44.372Z,987.36
2018-01-24T15:46:38.838Z,987.45
2018-01-24T15:47:38.516Z,987.13
2018-01-24T15:49:32.012Z,987.30
2018-01-24T15:50:31.457Z,987.24
2018-01-24T15:52:25.470Z,987.24
2018-01-24T15:53:25.374Z,987.23
2018-01-24T15:55:19.742Z,987.10
2018-01-24T15:56:19.188Z,987.13
2018-01-24T15:58:13.474Z,987.10
